N7AP88 KLMT-KGEG
Flight info
| Callsign | N7AP88 |
|---|---|
| Flight time | 1h 34m |
| Altitude | 16000 |
| Route | LMT V25 DSD/N0293F170 V536 PDT V112 GEG |
| Aircraft | TBM9/L-SDFGRWY/S |
Departure
| Time | 2026-05-08 01:52 |
|---|---|
| Airport | Crater Lake-Klamath Regional Airport (KLMT) |
Arrival
| Time | 2026-05-08 03:27 |
|---|---|
| Airport | Spokane International Airport (KGEG) |
| Time | Latitude | Longitude | Altitude | Speed | Heading |
|---|---|---|---|---|---|
| 2026-05-08 01:19 | 42.15848 | -121.74300 | 4093 ft | 0 kts | 220° |
| 2026-05-08 01:44 | 42.15839 | -121.74314 | 4093 ft | 7 kts | 232° |
| 2026-05-08 01:44 | 42.15823 | -121.74302 | 4093 ft | 0 kts | 102° |
| 2026-05-08 01:45 | 42.15822 | -121.74300 | 4093 ft | 2 kts | 118° |
| 2026-05-08 01:45 | 42.15807 | -121.74273 | 4093 ft | 9 kts | 107° |
| 2026-05-08 01:45 | 42.15800 | -121.74234 | 4093 ft | 1 kts | 166° |
| 2026-05-08 01:45 | 42.15784 | -121.74215 | 4093 ft | 7 kts | 119° |
| 2026-05-08 01:46 | 42.15778 | -121.74145 | 4093 ft | 15 kts | 91° |
| 2026-05-08 01:46 | 42.15775 | -121.73983 | 4093 ft | 18 kts | 90° |
| 2026-05-08 01:46 | 42.15775 | -121.73804 | 4092 ft | 20 kts | 88° |
| 2026-05-08 01:46 | 42.15766 | -121.73747 | 4092 ft | 0 kts | 106° |
| 2026-05-08 01:48 | 42.15726 | -121.73714 | 4092 ft | 14 kts | 155° |
| 2026-05-08 01:48 | 42.15591 | -121.73638 | 4092 ft | 28 kts | 159° |
| 2026-05-08 01:48 | 42.15395 | -121.73534 | 4092 ft | 32 kts | 159° |
| 2026-05-08 01:49 | 42.15183 | -121.73420 | 4092 ft | 33 kts | 158° |
| 2026-05-08 01:49 | 42.14965 | -121.73305 | 4093 ft | 34 kts | 157° |
| 2026-05-08 01:49 | 42.14743 | -121.73185 | 4093 ft | 35 kts | 158° |
| 2026-05-08 01:49 | 42.14507 | -121.73072 | 4093 ft | 36 kts | 162° |
| 2026-05-08 01:50 | 42.14279 | -121.72927 | 4094 ft | 34 kts | 136° |
| 2026-05-08 01:50 | 42.14285 | -121.72739 | 4095 ft | 0 kts | 64° |
| 2026-05-08 01:51 | 42.14322 | -121.72683 | 4095 ft | 2 kts | 30° |
| 2026-05-08 01:51 | 42.14363 | -121.72676 | 4095 ft | 9 kts | 345° |
| 2026-05-08 01:51 | 42.14540 | -121.72768 | 4095 ft | 56 kts | 338° |
| 2026-05-08 01:52 | 42.15098 | -121.73063 | 4091 ft | 111 kts | 337° |
| 2026-05-08 01:52 | 42.15916 | -121.73466 | 4239 ft | 138 kts | 336° |
| 2026-05-08 01:52 | 42.16889 | -121.73890 | 4493 ft | 166 kts | 358° |
| 2026-05-08 01:52 | 42.17930 | -121.73061 | 4981 ft | 188 kts | 42° |
| 2026-05-08 01:53 | 42.18938 | -121.71947 | 5360 ft | 188 kts | 18° |
| 2026-05-08 01:53 | 42.20213 | -121.71760 | 5828 ft | 187 kts | 346° |
| 2026-05-08 01:53 | 42.21498 | -121.72069 | 6302 ft | 192 kts | 358° |
| 2026-05-08 01:53 | 42.22837 | -121.72063 | 6760 ft | 194 kts | 355° |
| 2026-05-08 01:54 | 42.24194 | -121.72179 | 7206 ft | 198 kts | 348° |
| 2026-05-08 01:54 | 42.25509 | -121.72690 | 7650 ft | 196 kts | 328° |
| 2026-05-08 01:54 | 42.26652 | -121.73720 | 8110 ft | 197 kts | 323° |
| 2026-05-08 01:54 | 42.27779 | -121.74760 | 8571 ft | 195 kts | 323° |
| 2026-05-08 01:55 | 42.28900 | -121.75765 | 9044 ft | 191 kts | 323° |
| 2026-05-08 01:55 | 42.30032 | -121.76736 | 9526 ft | 194 kts | 324° |
| 2026-05-08 01:55 | 42.31190 | -121.77686 | 10000 ft | 193 kts | 324° |
| 2026-05-08 01:55 | 42.32327 | -121.78637 | 10439 ft | 191 kts | 323° |
| 2026-05-08 01:56 | 42.33456 | -121.79596 | 10885 ft | 193 kts | 324° |
| 2026-05-08 01:56 | 42.34613 | -121.80526 | 11340 ft | 194 kts | 325° |
| 2026-05-08 01:56 | 42.35765 | -121.81486 | 11800 ft | 196 kts | 324° |
| 2026-05-08 01:56 | 42.36978 | -121.82511 | 11890 ft | 216 kts | 324° |
| 2026-05-08 01:57 | 42.38423 | -121.83348 | 11904 ft | 240 kts | 348° |
| 2026-05-08 01:57 | 42.40129 | -121.83025 | 11906 ft | 261 kts | 20° |
| 2026-05-08 01:57 | 42.41605 | -121.81552 | 11905 ft | 274 kts | 41° |
| 2026-05-08 01:57 | 42.42978 | -121.79731 | 11902 ft | 280 kts | 45° |
| 2026-05-08 01:58 | 42.44244 | -121.77709 | 11901 ft | 283 kts | 49° |
| 2026-05-08 01:58 | 42.45493 | -121.75630 | 11902 ft | 285 kts | 49° |
| 2026-05-08 01:58 | 42.46726 | -121.73524 | 11900 ft | 286 kts | 50° |
| 2026-05-08 01:58 | 42.47935 | -121.71382 | 11902 ft | 287 kts | 51° |
| 2026-05-08 01:59 | 42.49160 | -121.69243 | 11890 ft | 287 kts | 48° |
| 2026-05-08 01:59 | 42.50594 | -121.67398 | 11882 ft | 282 kts | 32° |
| 2026-05-08 01:59 | 42.52363 | -121.66330 | 11885 ft | 278 kts | 13° |
| 2026-05-08 01:59 | 42.54228 | -121.65670 | 11884 ft | 277 kts | 11° |
| 2026-05-08 02:00 | 42.56103 | -121.65064 | 11888 ft | 277 kts | 10° |
| 2026-05-08 02:00 | 42.57977 | -121.64468 | 11889 ft | 276 kts | 10° |
| 2026-05-08 02:00 | 42.59842 | -121.63862 | 11891 ft | 275 kts | 9° |
| 2026-05-08 02:00 | 42.61704 | -121.63263 | 11889 ft | 275 kts | 9° |
| 2026-05-08 02:01 | 42.63566 | -121.62666 | 11886 ft | 275 kts | 10° |
| 2026-05-08 02:01 | 42.65430 | -121.62077 | 11885 ft | 275 kts | 9° |
| 2026-05-08 02:01 | 42.67293 | -121.61485 | 11884 ft | 275 kts | 9° |
| 2026-05-08 02:01 | 42.69160 | -121.60898 | 11884 ft | 275 kts | 9° |
| 2026-05-08 02:02 | 42.71025 | -121.60307 | 11884 ft | 276 kts | 9° |
| 2026-05-08 02:02 | 42.72893 | -121.59706 | 11884 ft | 276 kts | 10° |
| 2026-05-08 02:02 | 42.74742 | -121.59111 | 11881 ft | 276 kts | 9° |
| 2026-05-08 02:02 | 42.76612 | -121.58508 | 11891 ft | 276 kts | 9° |
| 2026-05-08 02:03 | 42.78497 | -121.58229 | 11881 ft | 270 kts | 355° |
| 2026-05-08 02:03 | 42.80370 | -121.58350 | 11882 ft | 270 kts | 355° |
| 2026-05-08 02:03 | 42.82257 | -121.58270 | 11888 ft | 272 kts | 2° |
| 2026-05-08 02:03 | 42.84133 | -121.57878 | 11893 ft | 274 kts | 6° |
| 2026-05-08 02:04 | 42.86007 | -121.57433 | 11892 ft | 273 kts | 6° |
| 2026-05-08 02:04 | 42.87889 | -121.57072 | 11888 ft | 273 kts | 4° |
| 2026-05-08 02:04 | 42.89779 | -121.56747 | 11884 ft | 273 kts | 4° |
| 2026-05-08 02:04 | 42.91666 | -121.56389 | 11885 ft | 274 kts | 5° |
| 2026-05-08 02:05 | 42.93555 | -121.56016 | 11883 ft | 274 kts | 5° |
| 2026-05-08 02:05 | 42.95443 | -121.55656 | 11879 ft | 274 kts | 5° |
| 2026-05-08 02:05 | 42.97330 | -121.55300 | 11879 ft | 274 kts | 5° |
| 2026-05-08 02:05 | 42.99215 | -121.54938 | 11880 ft | 273 kts | 5° |
| 2026-05-08 02:06 | 43.01098 | -121.54578 | 11879 ft | 273 kts | 5° |
| 2026-05-08 02:06 | 43.02979 | -121.54214 | 11884 ft | 273 kts | 5° |
| 2026-05-08 02:06 | 43.04839 | -121.53862 | 11892 ft | 273 kts | 4° |
| 2026-05-08 02:06 | 43.06724 | -121.53511 | 11894 ft | 273 kts | 4° |
| 2026-05-08 02:07 | 43.08610 | -121.53139 | 11896 ft | 275 kts | 4° |
| 2026-05-08 02:07 | 43.10520 | -121.52765 | 11893 ft | 278 kts | 4° |
| 2026-05-08 02:07 | 43.12446 | -121.52397 | 11893 ft | 280 kts | 4° |
| 2026-05-08 02:07 | 43.14379 | -121.52029 | 11893 ft | 281 kts | 5° |
| 2026-05-08 02:08 | 43.16317 | -121.51656 | 11889 ft | 282 kts | 5° |
| 2026-05-08 02:08 | 43.18262 | -121.51283 | 11887 ft | 282 kts | 4° |
| 2026-05-08 02:08 | 43.20207 | -121.50908 | 11886 ft | 282 kts | 4° |
| 2026-05-08 02:08 | 43.22115 | -121.50544 | 12203 ft | 271 kts | 4° |
| 2026-05-08 02:09 | 43.23949 | -121.50192 | 12577 ft | 263 kts | 4° |
| 2026-05-08 02:09 | 43.25744 | -121.49854 | 12946 ft | 258 kts | 4° |
| 2026-05-08 02:09 | 43.27512 | -121.49513 | 13323 ft | 255 kts | 4° |
| 2026-05-08 02:09 | 43.29257 | -121.49173 | 13700 ft | 252 kts | 3° |
| 2026-05-08 02:10 | 43.30991 | -121.48837 | 14059 ft | 251 kts | 3° |
| 2026-05-08 02:10 | 43.32720 | -121.48505 | 14402 ft | 251 kts | 3° |
| 2026-05-08 02:10 | 43.34451 | -121.48171 | 14751 ft | 251 kts | 3° |
| 2026-05-08 02:10 | 43.36177 | -121.47826 | 15107 ft | 250 kts | 3° |
| 2026-05-08 02:11 | 43.37877 | -121.47503 | 15456 ft | 249 kts | 2° |
| 2026-05-08 02:11 | 43.39598 | -121.47183 | 15815 ft | 250 kts | 2° |
| 2026-05-08 02:11 | 43.41364 | -121.46839 | 15878 ft | 263 kts | 3° |
| 2026-05-08 02:11 | 43.43211 | -121.46472 | 15880 ft | 273 kts | 4° |
| 2026-05-08 02:12 | 43.45111 | -121.46096 | 15887 ft | 279 kts | 3° |
| 2026-05-08 02:12 | 43.47044 | -121.45721 | 15893 ft | 283 kts | 3° |
| 2026-05-08 02:12 | 43.49003 | -121.45341 | 15891 ft | 286 kts | 3° |
| 2026-05-08 02:12 | 43.50981 | -121.44954 | 15895 ft | 288 kts | 3° |
| 2026-05-08 02:13 | 43.52967 | -121.44569 | 15893 ft | 289 kts | 4° |
| 2026-05-08 02:13 | 43.54963 | -121.44180 | 15893 ft | 289 kts | 3° |
| 2026-05-08 02:13 | 43.56959 | -121.43792 | 15892 ft | 290 kts | 4° |
| 2026-05-08 02:13 | 43.58963 | -121.43400 | 15887 ft | 290 kts | 4° |
| 2026-05-08 02:14 | 43.60965 | -121.43010 | 15888 ft | 291 kts | 4° |
| 2026-05-08 02:14 | 43.62967 | -121.42619 | 15890 ft | 291 kts | 4° |
| 2026-05-08 02:14 | 43.64975 | -121.42227 | 15888 ft | 291 kts | 3° |
| 2026-05-08 02:14 | 43.66980 | -121.41835 | 15888 ft | 291 kts | 3° |
| 2026-05-08 02:15 | 43.68955 | -121.41449 | 15887 ft | 291 kts | 3° |
| 2026-05-08 02:15 | 43.70961 | -121.41056 | 15889 ft | 291 kts | 3° |
| 2026-05-08 02:15 | 43.72964 | -121.40663 | 15887 ft | 291 kts | 3° |
| 2026-05-08 02:15 | 43.74963 | -121.40272 | 15886 ft | 290 kts | 3° |
| 2026-05-08 02:16 | 43.76967 | -121.39879 | 15877 ft | 290 kts | 3° |
| 2026-05-08 02:16 | 43.78965 | -121.39487 | 15877 ft | 290 kts | 3° |
| 2026-05-08 02:16 | 43.80966 | -121.39094 | 15905 ft | 289 kts | 3° |
| 2026-05-08 02:16 | 43.82948 | -121.38705 | 16025 ft | 286 kts | 3° |
| 2026-05-08 02:17 | 43.84912 | -121.38321 | 16146 ft | 284 kts | 3° |
| 2026-05-08 02:17 | 43.86871 | -121.37936 | 16173 ft | 286 kts | 3° |
| 2026-05-08 02:17 | 43.88851 | -121.37544 | 16169 ft | 288 kts | 3° |
| 2026-05-08 02:17 | 43.90839 | -121.37149 | 16172 ft | 289 kts | 3° |
| 2026-05-08 02:18 | 43.92833 | -121.36758 | 16177 ft | 289 kts | 4° |
| 2026-05-08 02:18 | 43.94826 | -121.36367 | 16189 ft | 289 kts | 3° |
| 2026-05-08 02:18 | 43.96825 | -121.35974 | 16187 ft | 290 kts | 3° |
| 2026-05-08 02:18 | 43.98796 | -121.35578 | 16190 ft | 290 kts | 4° |
| 2026-05-08 02:19 | 44.00795 | -121.35182 | 16190 ft | 291 kts | 3° |
| 2026-05-08 02:19 | 44.02805 | -121.34789 | 16191 ft | 291 kts | 3° |
| 2026-05-08 02:19 | 44.04809 | -121.34396 | 16192 ft | 291 kts | 4° |
| 2026-05-08 02:19 | 44.06811 | -121.33991 | 16191 ft | 291 kts | 3° |
| 2026-05-08 02:20 | 44.08817 | -121.33593 | 16191 ft | 291 kts | 3° |
| 2026-05-08 02:20 | 44.10822 | -121.33198 | 16190 ft | 291 kts | 3° |
| 2026-05-08 02:20 | 44.12834 | -121.32799 | 16187 ft | 291 kts | 3° |
| 2026-05-08 02:20 | 44.14842 | -121.32399 | 16185 ft | 291 kts | 3° |
| 2026-05-08 02:21 | 44.16854 | -121.32001 | 16183 ft | 292 kts | 4° |
| 2026-05-08 02:21 | 44.18862 | -121.31603 | 16181 ft | 292 kts | 4° |
| 2026-05-08 02:21 | 44.20847 | -121.31204 | 16173 ft | 292 kts | 4° |
| 2026-05-08 02:21 | 44.22855 | -121.30745 | 16182 ft | 294 kts | 9° |
| 2026-05-08 02:22 | 44.24787 | -121.29720 | 16200 ft | 300 kts | 22° |
| 2026-05-08 02:22 | 44.26543 | -121.28103 | 16196 ft | 306 kts | 36° |
| 2026-05-08 02:22 | 44.28037 | -121.25969 | 16194 ft | 309 kts | 45° |
| 2026-05-08 02:22 | 44.29459 | -121.23718 | 16193 ft | 309 kts | 44° |
| 2026-05-08 02:23 | 44.30897 | -121.21484 | 16156 ft | 309 kts | 44° |
| 2026-05-08 02:23 | 44.32322 | -121.19243 | 16156 ft | 309 kts | 45° |
| 2026-05-08 02:23 | 44.33749 | -121.16985 | 16155 ft | 309 kts | 45° |
| 2026-05-08 02:23 | 44.35175 | -121.14739 | 16153 ft | 309 kts | 45° |
| 2026-05-08 02:24 | 44.36600 | -121.12485 | 16153 ft | 309 kts | 45° |
| 2026-05-08 02:24 | 44.38026 | -121.10230 | 16151 ft | 309 kts | 45° |
| 2026-05-08 02:24 | 44.39444 | -121.07982 | 16145 ft | 308 kts | 45° |
| 2026-05-08 02:24 | 44.40865 | -121.05739 | 16141 ft | 308 kts | 44° |
| 2026-05-08 02:25 | 44.42272 | -121.03535 | 16140 ft | 308 kts | 44° |
| 2026-05-08 02:25 | 44.43691 | -121.01280 | 16140 ft | 309 kts | 45° |
| 2026-05-08 02:25 | 44.45125 | -120.98987 | 16139 ft | 309 kts | 45° |
| 2026-05-08 02:25 | 44.46533 | -120.96755 | 16138 ft | 310 kts | 45° |
| 2026-05-08 02:26 | 44.47960 | -120.94495 | 16137 ft | 310 kts | 45° |
| 2026-05-08 02:26 | 44.49385 | -120.92231 | 16138 ft | 310 kts | 45° |
| 2026-05-08 02:26 | 44.50811 | -120.89961 | 16144 ft | 310 kts | 45° |
| 2026-05-08 02:26 | 44.52234 | -120.87696 | 16143 ft | 310 kts | 45° |
| 2026-05-08 02:27 | 44.53656 | -120.85430 | 16146 ft | 309 kts | 45° |
| 2026-05-08 02:27 | 44.55078 | -120.83160 | 16144 ft | 310 kts | 45° |
| 2026-05-08 02:27 | 44.56501 | -120.80889 | 16145 ft | 309 kts | 45° |
| 2026-05-08 02:27 | 44.57917 | -120.78627 | 16147 ft | 309 kts | 45° |
| 2026-05-08 02:28 | 44.59332 | -120.76369 | 16145 ft | 308 kts | 45° |
| 2026-05-08 02:28 | 44.60745 | -120.74110 | 16145 ft | 308 kts | 45° |
| 2026-05-08 02:28 | 44.62156 | -120.71850 | 16143 ft | 308 kts | 45° |
| 2026-05-08 02:28 | 44.63566 | -120.69590 | 16144 ft | 308 kts | 45° |
| 2026-05-08 02:29 | 44.64975 | -120.67327 | 16142 ft | 308 kts | 45° |
| 2026-05-08 02:29 | 44.66382 | -120.65068 | 16144 ft | 307 kts | 45° |
| 2026-05-08 02:29 | 44.67792 | -120.62807 | 16146 ft | 308 kts | 45° |
| 2026-05-08 02:29 | 44.69202 | -120.60539 | 16141 ft | 308 kts | 45° |
| 2026-05-08 02:30 | 44.70611 | -120.58273 | 16144 ft | 308 kts | 45° |
| 2026-05-08 02:30 | 44.72020 | -120.56010 | 16145 ft | 308 kts | 45° |
| 2026-05-08 02:30 | 44.73429 | -120.53733 | 16147 ft | 307 kts | 45° |
| 2026-05-08 02:30 | 44.74818 | -120.51504 | 16149 ft | 307 kts | 45° |
| 2026-05-08 02:31 | 44.76218 | -120.49240 | 16151 ft | 307 kts | 45° |
| 2026-05-08 02:31 | 44.77617 | -120.46966 | 16152 ft | 307 kts | 45° |
| 2026-05-08 02:31 | 44.79021 | -120.44696 | 16145 ft | 308 kts | 45° |
| 2026-05-08 02:31 | 44.80428 | -120.42426 | 16145 ft | 308 kts | 45° |
| 2026-05-08 02:32 | 44.81835 | -120.40161 | 16146 ft | 307 kts | 45° |
| 2026-05-08 02:32 | 44.83233 | -120.37890 | 16143 ft | 307 kts | 45° |
| 2026-05-08 02:32 | 44.84178 | -120.36348 | 16143 ft | 308 kts | 45° |
| 2026-05-08 02:32 | 44.86037 | -120.33333 | 16140 ft | 308 kts | 45° |
| 2026-05-08 02:33 | 44.86968 | -120.31823 | 16140 ft | 308 kts | 45° |
| 2026-05-08 02:33 | 44.88373 | -120.29538 | 16142 ft | 308 kts | 45° |
| 2026-05-08 02:33 | 44.89778 | -120.27250 | 16143 ft | 308 kts | 45° |
| 2026-05-08 02:33 | 44.91184 | -120.24966 | 16141 ft | 309 kts | 45° |
| 2026-05-08 02:34 | 44.92590 | -120.22676 | 16137 ft | 309 kts | 45° |
| 2026-05-08 02:34 | 44.93994 | -120.20385 | 16135 ft | 309 kts | 45° |
| 2026-05-08 02:34 | 44.95400 | -120.18090 | 16132 ft | 309 kts | 45° |
| 2026-05-08 02:34 | 44.96802 | -120.15799 | 16134 ft | 308 kts | 45° |
| 2026-05-08 02:35 | 44.98202 | -120.13515 | 16137 ft | 308 kts | 46° |
| 2026-05-08 02:35 | 44.99602 | -120.11222 | 16133 ft | 308 kts | 46° |
| 2026-05-08 02:35 | 45.01003 | -120.08925 | 16135 ft | 308 kts | 46° |
| 2026-05-08 02:35 | 45.02405 | -120.06631 | 16138 ft | 308 kts | 46° |
| 2026-05-08 02:36 | 45.03803 | -120.04336 | 16145 ft | 308 kts | 46° |
| 2026-05-08 02:36 | 45.05202 | -120.02042 | 16142 ft | 308 kts | 46° |
| 2026-05-08 02:36 | 45.06595 | -119.99747 | 16132 ft | 307 kts | 46° |
| 2026-05-08 02:36 | 45.07989 | -119.97452 | 16139 ft | 307 kts | 46° |
| 2026-05-08 02:37 | 45.09387 | -119.95169 | 16134 ft | 307 kts | 46° |
| 2026-05-08 02:37 | 45.10774 | -119.92871 | 16134 ft | 307 kts | 46° |
| 2026-05-08 02:37 | 45.12170 | -119.90584 | 16142 ft | 307 kts | 46° |
| 2026-05-08 02:37 | 45.13561 | -119.88286 | 16148 ft | 307 kts | 46° |
| 2026-05-08 02:38 | 45.14930 | -119.86012 | 16141 ft | 307 kts | 46° |
| 2026-05-08 02:38 | 45.16323 | -119.83712 | 16136 ft | 307 kts | 46° |
| 2026-05-08 02:38 | 45.17717 | -119.81413 | 16137 ft | 307 kts | 46° |
| 2026-05-08 02:38 | 45.19112 | -119.79117 | 16138 ft | 307 kts | 46° |
| 2026-05-08 02:39 | 45.20502 | -119.76809 | 16150 ft | 307 kts | 47° |
| 2026-05-08 02:39 | 45.21883 | -119.74508 | 16148 ft | 307 kts | 47° |
| 2026-05-08 02:39 | 45.23273 | -119.72203 | 16142 ft | 307 kts | 47° |
| 2026-05-08 02:39 | 45.24659 | -119.69901 | 16134 ft | 306 kts | 47° |
| 2026-05-08 02:40 | 45.26043 | -119.67605 | 16133 ft | 306 kts | 47° |
| 2026-05-08 02:40 | 45.27429 | -119.65300 | 16131 ft | 306 kts | 47° |
| 2026-05-08 02:40 | 45.28810 | -119.63000 | 16128 ft | 306 kts | 47° |
| 2026-05-08 02:40 | 45.30190 | -119.60703 | 16139 ft | 306 kts | 47° |
| 2026-05-08 02:41 | 45.31568 | -119.58404 | 16132 ft | 306 kts | 47° |
| 2026-05-08 02:41 | 45.32948 | -119.56103 | 16140 ft | 306 kts | 47° |
| 2026-05-08 02:41 | 45.34307 | -119.53830 | 16143 ft | 306 kts | 47° |
| 2026-05-08 02:41 | 45.35687 | -119.51528 | 16136 ft | 306 kts | 47° |
| 2026-05-08 02:42 | 45.37062 | -119.49229 | 16138 ft | 306 kts | 47° |
| 2026-05-08 02:42 | 45.38436 | -119.46920 | 16134 ft | 305 kts | 47° |
| 2026-05-08 02:42 | 45.39814 | -119.44613 | 16131 ft | 305 kts | 47° |
| 2026-05-08 02:42 | 45.41190 | -119.42308 | 16119 ft | 305 kts | 47° |
| 2026-05-08 02:43 | 45.42565 | -119.40002 | 16127 ft | 305 kts | 47° |
| 2026-05-08 02:43 | 45.43943 | -119.37683 | 16029 ft | 308 kts | 48° |
| 2026-05-08 02:43 | 45.45333 | -119.35347 | 15950 ft | 309 kts | 48° |
| 2026-05-08 02:43 | 45.46712 | -119.33025 | 15949 ft | 307 kts | 47° |
| 2026-05-08 02:44 | 45.48095 | -119.30700 | 15947 ft | 306 kts | 47° |
| 2026-05-08 02:44 | 45.49469 | -119.28384 | 15941 ft | 306 kts | 47° |
| 2026-05-08 02:44 | 45.50840 | -119.26071 | 15938 ft | 305 kts | 48° |
| 2026-05-08 02:44 | 45.52214 | -119.23756 | 15942 ft | 305 kts | 48° |
| 2026-05-08 02:45 | 45.53580 | -119.21442 | 15938 ft | 305 kts | 48° |
| 2026-05-08 02:45 | 45.54928 | -119.19161 | 15937 ft | 304 kts | 48° |
| 2026-05-08 02:45 | 45.56293 | -119.16854 | 15931 ft | 304 kts | 48° |
| 2026-05-08 02:45 | 45.57657 | -119.14544 | 15923 ft | 304 kts | 48° |
| 2026-05-08 02:46 | 45.59017 | -119.12235 | 15919 ft | 304 kts | 48° |
| 2026-05-08 02:46 | 45.60380 | -119.09920 | 15917 ft | 304 kts | 48° |
| 2026-05-08 02:46 | 45.61743 | -119.07608 | 15918 ft | 304 kts | 48° |
| 2026-05-08 02:46 | 45.63104 | -119.05295 | 15924 ft | 304 kts | 48° |
| 2026-05-08 02:47 | 45.64462 | -119.02986 | 15923 ft | 304 kts | 48° |
| 2026-05-08 02:47 | 45.65821 | -119.00673 | 15925 ft | 304 kts | 48° |
| 2026-05-08 02:47 | 45.67180 | -118.98358 | 15929 ft | 304 kts | 48° |
| 2026-05-08 02:47 | 45.68542 | -118.96037 | 15930 ft | 303 kts | 49° |
| 2026-05-08 02:48 | 45.70041 | -118.93959 | 15923 ft | 299 kts | 35° |
| 2026-05-08 02:48 | 45.71805 | -118.92487 | 15922 ft | 296 kts | 23° |
| 2026-05-08 02:48 | 45.73699 | -118.91234 | 15911 ft | 296 kts | 24° |
| 2026-05-08 02:48 | 45.75539 | -118.89981 | 15911 ft | 297 kts | 24° |
| 2026-05-08 02:49 | 45.77403 | -118.88707 | 15908 ft | 297 kts | 24° |
| 2026-05-08 02:49 | 45.79271 | -118.87441 | 15907 ft | 297 kts | 24° |
| 2026-05-08 02:49 | 45.81137 | -118.86177 | 15912 ft | 297 kts | 24° |
| 2026-05-08 02:49 | 45.83006 | -118.84906 | 15913 ft | 297 kts | 24° |
| 2026-05-08 02:50 | 45.84868 | -118.83638 | 15904 ft | 297 kts | 24° |
| 2026-05-08 02:50 | 45.86736 | -118.82368 | 15904 ft | 297 kts | 24° |
| 2026-05-08 02:50 | 45.88601 | -118.81096 | 15904 ft | 297 kts | 24° |
| 2026-05-08 02:50 | 45.90465 | -118.79825 | 15904 ft | 297 kts | 24° |
| 2026-05-08 02:51 | 45.92333 | -118.78550 | 15909 ft | 297 kts | 24° |
| 2026-05-08 02:51 | 45.94196 | -118.77277 | 15907 ft | 296 kts | 24° |
| 2026-05-08 02:51 | 45.96062 | -118.76005 | 15899 ft | 296 kts | 24° |
| 2026-05-08 02:51 | 45.97921 | -118.74734 | 15901 ft | 296 kts | 24° |
| 2026-05-08 02:52 | 45.99751 | -118.73482 | 15905 ft | 295 kts | 24° |
| 2026-05-08 02:52 | 46.01607 | -118.72210 | 15912 ft | 296 kts | 24° |
| 2026-05-08 02:52 | 46.03469 | -118.70933 | 15911 ft | 296 kts | 24° |
| 2026-05-08 02:52 | 46.05325 | -118.69661 | 15910 ft | 295 kts | 24° |
| 2026-05-08 02:53 | 46.07180 | -118.68388 | 15905 ft | 296 kts | 24° |
| 2026-05-08 02:53 | 46.09037 | -118.67111 | 15906 ft | 296 kts | 24° |
| 2026-05-08 02:53 | 46.10894 | -118.65836 | 15907 ft | 296 kts | 24° |
| 2026-05-08 02:53 | 46.12753 | -118.64557 | 15910 ft | 296 kts | 24° |
| 2026-05-08 02:54 | 46.14613 | -118.63275 | 15908 ft | 296 kts | 24° |
| 2026-05-08 02:54 | 46.16473 | -118.61994 | 15907 ft | 296 kts | 24° |
| 2026-05-08 02:54 | 46.18332 | -118.60713 | 15906 ft | 296 kts | 24° |
| 2026-05-08 02:54 | 46.20190 | -118.59432 | 15909 ft | 296 kts | 24° |
| 2026-05-08 02:55 | 46.22048 | -118.58147 | 15910 ft | 296 kts | 24° |
| 2026-05-08 02:55 | 46.25741 | -118.55598 | 16097 ft | 291 kts | 24° |
| 2026-05-08 02:55 | 46.27566 | -118.54337 | 16169 ft | 292 kts | 24° |
| 2026-05-08 02:56 | 46.29405 | -118.53062 | 16168 ft | 294 kts | 24° |
| 2026-05-08 02:56 | 46.31249 | -118.51779 | 16167 ft | 295 kts | 24° |
| 2026-05-08 02:56 | 46.33103 | -118.50492 | 16168 ft | 296 kts | 24° |
| 2026-05-08 02:56 | 46.34967 | -118.49200 | 16168 ft | 297 kts | 24° |
| 2026-05-08 02:57 | 46.36807 | -118.47923 | 16168 ft | 297 kts | 24° |
| 2026-05-08 02:57 | 46.38693 | -118.46610 | 16166 ft | 297 kts | 24° |
| 2026-05-08 02:57 | 46.40536 | -118.45328 | 16165 ft | 297 kts | 24° |
| 2026-05-08 02:57 | 46.42419 | -118.44018 | 16179 ft | 297 kts | 24° |
| 2026-05-08 02:58 | 46.44252 | -118.42739 | 16178 ft | 296 kts | 24° |
| 2026-05-08 02:58 | 46.46106 | -118.41448 | 16176 ft | 296 kts | 24° |
| 2026-05-08 02:58 | 46.47961 | -118.40154 | 16176 ft | 296 kts | 24° |
| 2026-05-08 02:58 | 46.49810 | -118.38862 | 16175 ft | 295 kts | 24° |
| 2026-05-08 02:59 | 46.51662 | -118.37566 | 16168 ft | 295 kts | 24° |
| 2026-05-08 02:59 | 46.53515 | -118.36272 | 16176 ft | 295 kts | 24° |
| 2026-05-08 02:59 | 46.55368 | -118.34975 | 16175 ft | 295 kts | 24° |
| 2026-05-08 02:59 | 46.57220 | -118.33677 | 16178 ft | 295 kts | 24° |
| 2026-05-08 03:00 | 46.59076 | -118.32377 | 16179 ft | 296 kts | 24° |
| 2026-05-08 03:00 | 46.60931 | -118.31076 | 16178 ft | 296 kts | 24° |
| 2026-05-08 03:00 | 46.62785 | -118.29773 | 16179 ft | 296 kts | 24° |
| 2026-05-08 03:00 | 46.64639 | -118.28470 | 16178 ft | 296 kts | 24° |
| 2026-05-08 03:01 | 46.66493 | -118.27166 | 16178 ft | 296 kts | 24° |
| 2026-05-08 03:01 | 46.68322 | -118.25878 | 16182 ft | 295 kts | 24° |
| 2026-05-08 03:01 | 46.70165 | -118.24579 | 16180 ft | 294 kts | 24° |
| 2026-05-08 03:01 | 46.72029 | -118.23268 | 16179 ft | 294 kts | 24° |
| 2026-05-08 03:02 | 46.73847 | -118.21987 | 16179 ft | 293 kts | 24° |
| 2026-05-08 03:02 | 46.75683 | -118.20690 | 16179 ft | 293 kts | 24° |
| 2026-05-08 03:02 | 46.77517 | -118.19394 | 16178 ft | 293 kts | 24° |
| 2026-05-08 03:02 | 46.79350 | -118.18099 | 16178 ft | 293 kts | 24° |
| 2026-05-08 03:03 | 46.81212 | -118.16777 | 15846 ft | 302 kts | 24° |
| 2026-05-08 03:03 | 46.83122 | -118.15412 | 15492 ft | 308 kts | 24° |
| 2026-05-08 03:03 | 46.85036 | -118.14047 | 15129 ft | 303 kts | 24° |
| 2026-05-08 03:03 | 46.86932 | -118.12722 | 14771 ft | 301 kts | 24° |
| 2026-05-08 03:04 | 46.88815 | -118.11391 | 14415 ft | 300 kts | 25° |
| 2026-05-08 03:04 | 46.90691 | -118.10054 | 14065 ft | 299 kts | 25° |
| 2026-05-08 03:04 | 46.92555 | -118.08725 | 13709 ft | 297 kts | 25° |
| 2026-05-08 03:04 | 46.94415 | -118.07399 | 13289 ft | 296 kts | 25° |
| 2026-05-08 03:05 | 46.96267 | -118.06076 | 12795 ft | 296 kts | 25° |
| 2026-05-08 03:05 | 46.98121 | -118.04758 | 12311 ft | 296 kts | 25° |
| 2026-05-08 03:05 | 46.99948 | -118.03464 | 12192 ft | 285 kts | 25° |
| 2026-05-08 03:05 | 47.01705 | -118.02226 | 12187 ft | 276 kts | 24° |
| 2026-05-08 03:06 | 47.03397 | -118.01022 | 12185 ft | 272 kts | 25° |
| 2026-05-08 03:06 | 47.05085 | -117.99807 | 12187 ft | 269 kts | 25° |
| 2026-05-08 03:06 | 47.06763 | -117.98603 | 12186 ft | 267 kts | 25° |
| 2026-05-08 03:06 | 47.08438 | -117.97404 | 12186 ft | 267 kts | 25° |
| 2026-05-08 03:07 | 47.10102 | -117.96213 | 12188 ft | 266 kts | 25° |
| 2026-05-08 03:07 | 47.11768 | -117.95019 | 12186 ft | 266 kts | 25° |
| 2026-05-08 03:07 | 47.13432 | -117.93826 | 12186 ft | 266 kts | 25° |
| 2026-05-08 03:07 | 47.15094 | -117.92632 | 12189 ft | 266 kts | 24° |
| 2026-05-08 03:08 | 47.16764 | -117.91436 | 12021 ft | 271 kts | 25° |
| 2026-05-08 03:08 | 47.18484 | -117.90192 | 11528 ft | 272 kts | 25° |
| 2026-05-08 03:08 | 47.20128 | -117.89001 | 11042 ft | 257 kts | 25° |
| 2026-05-08 03:08 | 47.21716 | -117.87870 | 10554 ft | 250 kts | 24° |
| 2026-05-08 03:09 | 47.23267 | -117.86758 | 10078 ft | 246 kts | 26° |
| 2026-05-08 03:09 | 47.24776 | -117.85666 | 9588 ft | 244 kts | 26° |
| 2026-05-08 03:09 | 47.26292 | -117.84574 | 9071 ft | 242 kts | 26° |
| 2026-05-08 03:09 | 47.27802 | -117.83489 | 8561 ft | 240 kts | 26° |
| 2026-05-08 03:10 | 47.29299 | -117.82406 | 8060 ft | 239 kts | 27° |
| 2026-05-08 03:10 | 47.30789 | -117.81327 | 7565 ft | 238 kts | 27° |
| 2026-05-08 03:10 | 47.32274 | -117.80255 | 7081 ft | 237 kts | 27° |
| 2026-05-08 03:10 | 47.33751 | -117.79188 | 6603 ft | 236 kts | 28° |
| 2026-05-08 03:11 | 47.35215 | -117.78128 | 6214 ft | 232 kts | 28° |
| 2026-05-08 03:11 | 47.36617 | -117.77120 | 6204 ft | 217 kts | 28° |
| 2026-05-08 03:11 | 47.37953 | -117.76158 | 6197 ft | 211 kts | 27° |
| 2026-05-08 03:11 | 47.39261 | -117.75210 | 6194 ft | 207 kts | 28° |
| 2026-05-08 03:12 | 47.40549 | -117.74274 | 6197 ft | 206 kts | 27° |
| 2026-05-08 03:12 | 47.41830 | -117.73343 | 6197 ft | 205 kts | 28° |
| 2026-05-08 03:12 | 47.43108 | -117.72408 | 6196 ft | 205 kts | 27° |
| 2026-05-08 03:12 | 47.44390 | -117.71482 | 6195 ft | 205 kts | 26° |
| 2026-05-08 03:13 | 47.45675 | -117.70550 | 6195 ft | 205 kts | 26° |
| 2026-05-08 03:13 | 47.46956 | -117.69624 | 6196 ft | 205 kts | 25° |
| 2026-05-08 03:13 | 47.48223 | -117.68697 | 6195 ft | 205 kts | 26° |
| 2026-05-08 03:13 | 47.49505 | -117.67758 | 6196 ft | 205 kts | 26° |
| 2026-05-08 03:14 | 47.50803 | -117.66814 | 6197 ft | 205 kts | 26° |
| 2026-05-08 03:14 | 47.52066 | -117.65896 | 6195 ft | 205 kts | 26° |
| 2026-05-08 03:14 | 47.53346 | -117.64962 | 6196 ft | 205 kts | 26° |
| 2026-05-08 03:14 | 47.54590 | -117.63936 | 6202 ft | 206 kts | 39° |
| 2026-05-08 03:15 | 47.55738 | -117.62705 | 6191 ft | 204 kts | 21° |
| 2026-05-08 03:15 | 47.57126 | -117.62334 | 6196 ft | 203 kts | 5° |
| 2026-05-08 03:15 | 47.58528 | -117.62395 | 6195 ft | 202 kts | 346° |
| 2026-05-08 03:15 | 47.59890 | -117.62908 | 6203 ft | 202 kts | 351° |
| 2026-05-08 03:16 | 47.61289 | -117.63112 | 6203 ft | 202 kts | 355° |
| 2026-05-08 03:16 | 47.62694 | -117.63285 | 6204 ft | 203 kts | 355° |
| 2026-05-08 03:16 | 47.64093 | -117.63460 | 6202 ft | 196 kts | 354° |
| 2026-05-08 03:16 | 47.65399 | -117.63622 | 6194 ft | 183 kts | 355° |
| 2026-05-08 03:17 | 47.66640 | -117.63784 | 6193 ft | 177 kts | 354° |
| 2026-05-08 03:17 | 47.67853 | -117.63932 | 6195 ft | 173 kts | 357° |
| 2026-05-08 03:17 | 47.68998 | -117.63523 | 6201 ft | 173 kts | 34° |
| 2026-05-08 03:17 | 47.69881 | -117.62312 | 6203 ft | 172 kts | 44° |
| 2026-05-08 03:18 | 47.70725 | -117.61068 | 6200 ft | 173 kts | 44° |
| 2026-05-08 03:18 | 47.71580 | -117.59818 | 6209 ft | 172 kts | 44° |
| 2026-05-08 03:18 | 47.72432 | -117.58562 | 6208 ft | 173 kts | 44° |
| 2026-05-08 03:18 | 47.73305 | -117.57271 | 5947 ft | 186 kts | 44° |
| 2026-05-08 03:19 | 47.74256 | -117.55858 | 5518 ft | 199 kts | 45° |
| 2026-05-08 03:19 | 47.75249 | -117.54377 | 5220 ft | 200 kts | 44° |
| 2026-05-08 03:19 | 47.76101 | -117.52837 | 5218 ft | 189 kts | 61° |
| 2026-05-08 03:19 | 47.76424 | -117.51001 | 5218 ft | 183 kts | 97° |
| 2026-05-08 03:20 | 47.76153 | -117.49848 | 5188 ft | 178 kts | 125° |
| 2026-05-08 03:20 | 47.75356 | -117.48347 | 4793 ft | 191 kts | 135° |
| 2026-05-08 03:20 | 47.74472 | -117.46813 | 4376 ft | 198 kts | 135° |
| 2026-05-08 03:20 | 47.73591 | -117.45278 | 4201 ft | 189 kts | 134° |
| 2026-05-08 03:21 | 47.72764 | -117.43841 | 4207 ft | 176 kts | 134° |
| 2026-05-08 03:21 | 47.71826 | -117.42842 | 3984 ft | 164 kts | 167° |
| 2026-05-08 03:21 | 47.70821 | -117.42709 | 3881 ft | 126 kts | 188° |
| 2026-05-08 03:21 | 47.69928 | -117.43008 | 3874 ft | 141 kts | 201° |
| 2026-05-08 03:22 | 47.69009 | -117.43588 | 4010 ft | 138 kts | 213° |
| 2026-05-08 03:22 | 47.68200 | -117.44439 | 4052 ft | 144 kts | 224° |
| 2026-05-08 03:22 | 47.67577 | -117.45574 | 4219 ft | 142 kts | 237° |
| 2026-05-08 03:22 | 47.67095 | -117.46899 | 4223 ft | 148 kts | 246° |
| 2026-05-08 03:23 | 47.66688 | -117.48306 | 4268 ft | 149 kts | 246° |
| 2026-05-08 03:23 | 47.66282 | -117.49751 | 4203 ft | 154 kts | 246° |
| 2026-05-08 03:23 | 47.65852 | -117.51227 | 4137 ft | 158 kts | 246° |
| 2026-05-08 03:23 | 47.65416 | -117.52724 | 4071 ft | 157 kts | 247° |
| 2026-05-08 03:24 | 47.64972 | -117.54211 | 3931 ft | 154 kts | 244° |
| 2026-05-08 03:24 | 47.64578 | -117.55489 | 3718 ft | 120 kts | 245° |
| 2026-05-08 03:24 | 47.64229 | -117.56540 | 3462 ft | 111 kts | 244° |
| 2026-05-08 03:24 | 47.63928 | -117.57541 | 3238 ft | 105 kts | 246° |
| 2026-05-08 03:25 | 47.63669 | -117.58377 | 3131 ft | 78 kts | 244° |
| 2026-05-08 03:25 | 47.63452 | -117.59096 | 3007 ft | 79 kts | 245° |
| 2026-05-08 03:25 | 47.63206 | -117.59857 | 2884 ft | 84 kts | 242° |
| 2026-05-08 03:25 | 47.62965 | -117.60651 | 2772 ft | 85 kts | 244° |
| 2026-05-08 03:26 | 47.62717 | -117.61454 | 2661 ft | 84 kts | 244° |
| 2026-05-08 03:26 | 47.62486 | -117.62247 | 2583 ft | 85 kts | 248° |
| 2026-05-08 03:26 | 47.62243 | -117.63075 | 2464 ft | 89 kts | 244° |
| 2026-05-08 03:26 | 47.61998 | -117.63903 | 2428 ft | 86 kts | 244° |
| 2026-05-08 03:27 | 47.61795 | -117.64593 | 2436 ft | 60 kts | 246° |
| 2026-05-08 03:27 | 47.61655 | -117.65068 | 2447 ft | 44 kts | 251° |
| 2026-05-08 03:27 | 47.61553 | -117.65448 | 2446 ft | 36 kts | 252° |
| 2026-05-08 03:27 | 47.61697 | -117.65652 | 2445 ft | 33 kts | 340° |
| 2026-05-08 03:28 | 47.61856 | -117.65824 | 2446 ft | 28 kts | 250° |
| 2026-05-08 03:28 | 47.61848 | -117.66020 | 2448 ft | 2 kts | 338° |